FNHU/NOV METAR and TAF weather

Enter ICAO airport designator
Station Type Date Time Source
FNHU METAR 2019/02/22 15:00 UTC NOAA

FNHU 221500Z 33004KT 8000 VCSH SCT019 FEW026CB BKN070 20/16 Q1020


Station Type Date Time Source
FNHU Decoded METAR 2019/02/22 15:00 UTC NOAA

Huambo Nova Lisboa , Angola (FNHU) 12-48S 015-45E 1701M
Feb 22, 2019 - 10:00 AM EST / 2019.02.22 1500 UTC
Wind: from the NNW (330 degrees) at 5 MPH (4 KT):0
Visibility: 4 mile(s):0
Sky conditions: mostly cloudy
Weather: showers in the vicinity; Cumulonimbus clouds observed
Temperature: 68 F (20 C)
Dew Point: 60 F (16 C)
Relative Humidity: 77%
Pressure (altimeter): 30.12 in. Hg (1020 hPa)
ob: FNHU 221500Z 33004KT 8000 VCSH SCT019 FEW026CB BKN070 20/16 Q1020
cycle: 15

Station Type Date Time Source
FNHU TAF 2019/02/22 12:06 UTC NOAA

TAF TAF FNHU 221100Z 2212/2224 VRB02KT 9999 BKN018 PROB30
TEMPO 2215/2219 5000 TSRA SCT010 BKN015 FEW030CB
BECMG 2221/2223 01005KT 8000


Example: see airport list